Time;durP1;ratioP1;P1;durP2;ratioP2;P2;SDS_P1;SDS_P2;PMS_P1;PMS_P2;Temp;Humidity;BMP_temperature;BMP_pressure;BME280_temperature;BME280_humidity;BME280_pressure;Samples;Min_cycle;Max_cycle;Signal;HPM_P1;HPM_P2
2023/04/26 00:02:21;;;;;;;11.95;7.10;;;;;;;13.58;100.00;99504.34;5019816;28;20053;-72
2023/04/26 00:04:57;;;;;;;12.00;8.18;;;;;;;13.61;100.00;99508.69;5017749;28;20113;-71
2023/04/26 00:07:24;;;;;;;18.40;9.10;;;;;;;13.34;100.00;99466.03;5030868;28;20033;-72
2023/04/26 00:09:52;;;;;;;18.10;9.90;;;;;;;13.63;100.00;99513.88;5018246;28;20029;-69
2023/04/26 00:12:18;;;;;;;31.75;11.80;;;;;;;13.66;100.00;99508.75;5023053;28;20112;-70
2023/04/26 00:14:43;;;;;;;35.17;13.23;;;;;;;13.40;100.00;99463.53;5029721;28;20108;-73
2023/04/26 00:17:09;;;;;;;41.63;13.77;;;;;;;13.69;100.00;99508.75;5030390;28;20045;-70
2023/04/26 00:19:35;;;;;;;44.42;14.52;;;;;;;13.74;100.00;99507.06;5033972;28;20046;-74
2023/04/26 00:22:01;;;;;;;34.05;14.10;;;;;;;13.72;100.00;99512.25;5033687;28;20081;-73
2023/04/26 00:24:27;;;;;;;28.83;14.07;;;;;;;13.77;100.00;99507.09;5031082;28;20077;-71
2023/04/26 00:26:55;;;;;;;42.20;14.15;;;;;;;13.79;100.00;99496.72;5032713;28;20061;-71
2023/04/26 00:29:21;;;;;;;29.95;10.98;;;;;;;13.77;100.00;99501.91;5033997;28;20092;-71
2023/04/26 00:31:47;;;;;;;13.95;8.23;;;;;;;13.49;100.00;99446.34;5032311;28;20025;-70
2023/04/26 00:34:12;;;;;;;12.23;8.05;;;;;;;13.74;100.00;99496.69;5032703;28;20068;-71
2023/04/26 00:36:38;;;;;;;9.88;7.97;;;;;;;13.77;100.00;99493.25;5031018;28;20022;-72
2023/04/26 00:39:03;;;;;;;16.42;8.52;;;;;;;13.76;100.00;99494.97;5031811;28;20527;-72
2023/04/26 00:41:29;;;;;;;22.00;10.70;;;;;;;13.90;100.00;99495.09;5031025;28;20025;-72
2023/04/26 00:43:54;;;;;;;24.40;11.60;;;;;;;13.89;100.00;99490.75;5032174;28;20040;-71
2023/04/26 00:46:21;;;;;;;25.65;11.90;;;;;;;13.89;100.00;99494.22;5029770;28;20030;-70
2023/04/26 00:48:47;;;;;;;17.67;9.23;;;;;;;13.87;100.00;99495.94;5032279;28;20446;-70
2023/04/26 00:51:13;;;;;;;17.92;8.25;;;;;;;13.71;100.00;99492.34;5032320;28;20034;-71
2023/04/26 00:53:39;;;;;;;9.07;6.63;;;;;;;13.39;100.00;99489.47;5030983;28;20029;-70
2023/04/26 00:56:09;;;;;;;9.48;6.53;;;;;;;13.24;100.00;99497.91;5032047;28;20407;-68
2023/04/26 00:58:36;;;;;;;7.55;6.07;;;;;;;13.22;100.00;99476.28;5032042;28;20030;-72
2023/04/26 01:01:01;;;;;;;7.22;5.75;;;;;;;13.07;100.00;99477.88;5025678;28;20076;-70
2023/04/26 01:03:27;;;;;;;7.13;5.55;;;;;;;13.07;100.00;99483.06;5018876;28;20444;-69
2023/04/26 01:05:53;;;;;;;7.47;5.40;;;;;;;12.93;100.00;99474.25;5022387;28;20096;-69
2023/04/26 01:08:19;;;;;;;6.07;4.88;;;;;;;12.98;100.00;99472.59;5020921;28;20404;-72
2023/04/26 01:10:48;;;;;;;7.57;5.13;;;;;;;13.08;100.00;99474.44;5020662;28;20447;-70
2023/04/26 01:13:15;;;;;;;8.15;5.43;;;;;;;13.07;100.00;99467.53;5019183;28;20034;-71
2023/04/26 01:15:47;;;;;;;11.63;6.13;;;;;;;13.19;100.00;99478.88;5026846;28;20033;-68
2023/04/26 01:18:13;;;;;;;6.60;5.35;;;;;;;13.23;100.00;99476.34;5031556;28;20028;-72
2023/04/26 01:20:40;;;;;;;7.43;5.47;;;;;;;13.05;100.00;99427.75;5031327;28;20395;-71
2023/04/26 01:23:07;;;;;;;7.03;5.88;;;;;;;13.34;100.00;99470.38;5031821;28;20040;-71
2023/04/26 01:25:33;;;;;;;10.52;7.35;;;;;;;13.43;100.00;99467.88;5031518;28;20034;-73
2023/04/26 01:27:58;;;;;;;10.43;8.52;;;;;;;13.18;100.00;99423.56;5031757;28;20476;-70
2023/04/26 01:30:24;;;;;;;11.43;9.38;;;;;;;13.43;100.00;99471.38;5029952;28;20106;-71
2023/04/26 01:32:50;;;;;;;11.63;9.48;;;;;;;13.39;100.00;99461.78;4989860;28;1199681;-71
2023/04/26 01:35:16;;;;;;;13.70;10.20;;;;;;;13.24;100.00;99443.50;5032937;28;20037;-72
2023/04/26 01:37:42;;;;;;;12.48;9.57;;;;;;;13.25;100.00;99477.19;5032327;28;20116;-69
2023/04/26 01:40:08;;;;;;;13.45;9.00;;;;;;;13.16;100.00;99465.84;5032776;28;20123;-71
2023/04/26 01:42:34;;;;;;;14.55;9.52;;;;;;;13.04;100.00;99441.56;5031768;28;20471;-71
2023/04/26 01:44:59;;;;;;;13.23;9.43;;;;;;;12.93;100.00;99422.44;5032460;28;20033;-69
2023/04/26 01:47:25;;;;;;;16.42;10.57;;;;;;;13.22;100.00;99455.56;5032233;28;20056;-68
2023/04/26 01:49:51;;;;;;;12.40;9.10;;;;;;;13.05;100.00;99408.75;5032104;28;20022;-69
2023/04/26 01:52:16;;;;;;;13.10;8.98;;;;;;;13.01;100.00;99451.03;5031143;28;20025;-68
2023/04/26 01:54:42;;;;;;;13.88;9.27;;;;;;;13.06;100.00;99452.81;5029665;28;20396;-70
2023/04/26 01:57:07;;;;;;;11.68;8.68;;;;;;;13.00;100.00;99439.81;5030842;28;20021;-70
2023/04/26 01:59:33;;;;;;;9.65;7.97;;;;;;;12.97;100.00;99450.13;5032314;28;20112;-73
2023/04/26 02:01:58;;;;;;;9.27;8.00;;;;;;;12.99;100.00;99435.47;5047416;28;20464;-72
2023/04/26 02:04:24;;;;;;;10.70;8.25;;;;;;;12.93;100.00;99432.81;5031681;28;20112;-73
2023/04/26 02:06:50;;;;;;;8.65;7.18;;;;;;;12.66;100.00;99447.22;5031910;28;20029;-68
2023/04/26 02:09:15;;;;;;;9.45;7.00;;;;;;;12.54;100.00;99442.72;5031166;28;20472;-69
2023/04/26 02:11:41;;;;;;;10.40;6.90;;;;;;;12.42;100.00;99388.22;5031646;28;20021;-74
2023/04/26 02:14:06;;;;;;;7.88;6.20;;;;;;;12.71;100.00;99431.69;5030227;28;20414;-71
2023/04/26 02:16:32;;;;;;;8.27;6.38;;;;;;;12.64;100.00;99433.34;5013068;28;20041;-73
2023/04/26 02:19:01;;;;;;;9.68;5.97;;;;;;;12.74;100.00;99436.94;5031789;28;20400;-71
2023/04/26 02:21:27;;;;;;;7.95;5.80;;;;;;;12.68;100.00;99432.53;5031374;28;20038;-75
2023/04/26 02:23:52;;;;;;;9.07;5.88;;;;;;;12.78;100.00;99433.50;5031659;28;20033;-73
2023/04/26 02:26:18;;;;;;;7.38;6.00;;;;;;;12.88;100.00;99445.72;5031606;28;20091;-70
2023/04/26 02:28:43;;;;;;;7.63;6.47;;;;;;;12.81;100.00;99405.06;5031502;28;20060;-73
2023/04/26 02:31:09;;;;;;;9.50;6.38;;;;;;;13.02;100.00;99422.56;5031647;28;20041;-71
2023/04/26 02:33:34;;;;;;;8.15;6.57;;;;;;;13.15;100.00;99430.47;5031071;28;20045;-73
2023/04/26 02:36:07;;;;;;;7.18;5.45;;;;;;;13.16;100.00;99426.97;5031549;28;20048;-69
2023/04/26 02:38:34;;;;;;;7.00;5.03;;;;;;;13.20;100.00;99426.19;5031414;28;20108;-71
2023/04/26 02:41:00;;;;;;;5.38;4.25;;;;;;;13.26;100.00;99437.47;5031340;28;20029;-72
2023/04/26 02:43:26;;;;;;;5.63;3.95;;;;;;;13.41;100.00;99441.09;5031405;28;20116;-69
2023/04/26 02:45:51;;;;;;;8.15;3.92;;;;;;;13.39;100.00;99441.06;5030920;28;20101;-72
2023/04/26 02:48:17;;;;;;;5.15;3.50;;;;;;;13.36;100.00;99443.59;5030929;28;20025;-69
2023/04/26 02:50:43;;;;;;;5.13;3.55;;;;;;;13.41;100.00;99447.13;5030708;28;20483;-71
2023/04/26 02:53:08;;;;;;;5.30;3.28;;;;;;;13.25;100.00;99453.00;5031322;28;20065;-72
2023/04/26 02:55:34;;;;;;;5.15;3.35;;;;;;;13.10;100.00;99462.34;5031380;28;20022;-69
2023/04/26 02:57:59;;;;;;;5.13;3.45;;;;;;;13.17;100.00;99452.94;5031193;28;20495;-71
2023/04/26 03:00:26;;;;;;;4.68;3.15;;;;;;;13.21;100.00;99449.53;5029640;28;20392;-71
2023/04/26 03:02:51;;;;;;;5.03;2.88;;;;;;;13.02;100.00;99451.06;5030847;28;20033;-69
2023/04/26 03:05:17;;;;;;;4.95;3.20;;;;;;;12.90;100.00;99449.19;5030728;28;20026;-70
2023/04/26 03:07:42;;;;;;;4.35;3.22;;;;;;;12.93;100.00;99448.34;5027921;28;20037;-71
2023/04/26 03:10:08;;;;;;;5.95;3.28;;;;;;;13.01;100.00;99449.31;5027065;28;20021;-71
2023/04/26 03:12:34;;;;;;;5.70;3.42;;;;;;;13.11;100.00;99455.47;5030735;28;20491;-72
2023/04/26 03:15:01;;;;;;;6.07;3.33;;;;;;;13.20;100.00;99449.50;5030919;28;20107;-71
2023/04/26 03:17:27;;;;;;;4.22;3.00;;;;;;;13.32;100.00;99447.03;5030062;28;20479;-73
2023/04/26 03:19:52;;;;;;;5.47;3.65;;;;;;;13.41;100.00;99452.31;5030827;28;20032;-69
2023/04/26 03:22:18;;;;;;;5.63;3.30;;;;;;;13.47;100.00;99459.31;5030703;28;20521;-72
2023/04/26 03:24:45;;;;;;;5.40;3.45;;;;;;;13.48;100.00;99466.19;5030821;28;20021;-72
2023/04/26 03:27:10;;;;;;;6.05;3.80;;;;;;;13.56;100.00;99474.06;5030630;28;20068;-69
2023/04/26 03:29:36;;;;;;;5.88;3.53;;;;;;;13.61;100.00;99474.09;5030421;28;20167;-72
2023/04/26 03:32:01;;;;;;;6.97;3.50;;;;;;;13.61;100.00;99467.19;5030588;28;20044;-69
2023/04/26 03:34:27;;;;;;;6.03;3.42;;;;;;;13.61;100.00;99480.16;5030787;28;20143;-70
2023/04/26 03:36:52;;;;;;;4.38;3.22;;;;;;;13.59;100.00;99480.16;5030431;28;20037;-72
2023/04/26 03:39:18;;;;;;;4.43;2.75;;;;;;;13.59;100.00;99482.75;5029140;28;20022;-73
2023/04/26 03:41:43;;;;;;;6.20;2.97;;;;;;;13.66;100.00;99483.66;5029204;28;20025;-70
2023/04/26 03:44:09;;;;;;;6.30;3.20;;;;;;;13.68;100.00;99491.44;5030602;28;20454;-72
2023/04/26 03:46:34;;;;;;;4.55;2.85;;;;;;;13.70;100.00;99484.56;5030854;28;20026;-72
2023/04/26 03:49:00;;;;;;;4.43;2.90;;;;;;;13.57;100.00;99483.56;5030376;28;20033;-72
2023/04/26 03:51:27;;;;;;;4.68;3.50;;;;;;;13.31;100.00;99434.03;5028750;28;20116;-72
2023/04/26 03:53:52;;;;;;;4.50;2.70;;;;;;;13.60;100.00;99478.41;5030407;28;20036;-72
2023/04/26 03:56:18;;;;;;;6.03;3.20;;;;;;;13.57;100.00;99484.44;5030495;28;20037;-73
2023/04/26 03:58:43;;;;;;;5.30;3.28;;;;;;;13.50;100.00;99479.19;5030170;28;20021;-73
2023/04/26 04:01:08;;;;;;;4.32;2.90;;;;;;;13.56;100.00;99487.03;5034323;28;20067;-71
2023/04/26 04:03:34;;;;;;;5.35;3.20;;;;;;;13.61;100.00;99490.53;5034198;28;20022;-71
2023/04/26 04:05:59;;;;;;;5.80;3.30;;;;;;;13.51;100.00;99489.56;5033699;28;20040;-73
2023/04/26 04:08:25;;;;;;;5.32;3.53;;;;;;;13.41;100.00;99500.72;5033384;28;20120;-69
2023/04/26 04:10:52;;;;;;;4.10;3.15;;;;;;;13.49;100.00;99493.00;5021094;28;20125;-73
2023/04/26 04:13:17;;;;;;;4.25;3.03;;;;;;;13.50;100.00;99492.16;5014264;28;20022;-73
2023/04/26 04:15:42;;;;;;;3.97;2.97;;;;;;;13.52;100.00;99490.44;5014321;28;20044;-71
2023/04/26 04:18:08;;;;;;;4.25;3.00;;;;;;;13.51;100.00;99486.13;5014171;28;20030;-72
2023/04/26 04:20:33;;;;;;;3.60;2.58;;;;;;;13.13;100.00;99483.97;5014200;28;20030;-72
2023/04/26 04:23:00;;;;;;;6.03;2.80;;;;;;;12.76;100.00;99440.38;5028610;28;20124;-73
2023/04/26 04:25:26;;;;;;;5.68;3.30;;;;;;;13.11;100.00;99489.16;5036520;28;20044;-71
2023/04/26 04:27:52;;;;;;;4.07;3.28;;;;;;;13.17;100.00;99496.09;5042206;28;20471;-71
2023/04/26 04:30:17;;;;;;;4.30;2.92;;;;;;;13.02;100.00;99458.84;5036124;28;20434;-73
2023/04/26 04:32:43;;;;;;;5.55;2.97;;;;;;;13.21;100.00;99493.56;5033975;28;20056;-69
2023/04/26 04:35:09;;;;;;;4.65;3.25;;;;;;;13.17;100.00;99496.09;5033432;28;20123;-70
2023/04/26 04:37:35;;;;;;;5.18;3.53;;;;;;;13.20;100.00;99493.56;5033396;28;20038;-69
2023/04/26 04:40:01;;;;;;;4.85;3.60;;;;;;;13.36;100.00;99505.81;5033967;28;20021;-73
2023/04/26 04:42:27;;;;;;;4.55;3.05;;;;;;;13.39;100.00;99489.47;5033396;28;20124;-73
2023/04/26 04:44:53;;;;;;;4.55;3.38;;;;;;;13.45;100.00;99491.25;5027090;28;20143;-72
2023/04/26 04:47:18;;;;;;;6.03;3.80;;;;;;;13.46;100.00;99500.75;5024836;28;20484;-73
2023/04/26 04:49:44;;;;;;;4.82;3.70;;;;;;;13.24;100.00;99461.63;5033158;28;20049;-75
2023/04/26 04:52:09;;;;;;;5.50;3.78;;;;;;;13.52;100.00;99500.81;5033348;28;20071;-72
2023/04/26 04:54:35;;;;;;;5.97;3.63;;;;;;;13.54;100.00;99501.69;5025009;28;20120;-71
2023/04/26 04:57:02;;;;;;;5.07;3.70;;;;;;;13.54;100.00;99491.31;5019530;28;20018;-72
2023/04/26 04:59:28;;;;;;;6.72;3.90;;;;;;;13.36;100.00;99479.03;5012641;28;20507;-74
2023/04/26 05:01:54;;;;;;;7.25;4.40;;;;;;;13.33;100.00;99495.41;5013989;28;20049;-72
2023/04/26 05:04:19;;;;;;;8.63;4.20;;;;;;;13.36;100.00;99504.97;5013499;28;20389;-72
2023/04/26 05:06:45;;;;;;;5.75;4.13;;;;;;;13.24;100.00;99496.19;5012858;28;20029;-75
2023/04/26 05:09:10;;;;;;;5.72;4.20;;;;;;;13.29;100.00;99500.56;5028229;28;20029;-69
2023/04/26 05:11:36;;;;;;;5.80;4.15;;;;;;;13.14;100.00;99465.84;5023287;28;20036;-70
2023/04/26 05:14:02;;;;;;;7.35;4.05;;;;;;;13.38;100.00;99504.16;5022406;28;20026;-72
2023/04/26 05:16:27;;;;;;;5.13;4.00;;;;;;;13.11;100.00;99458.06;5023431;28;20014;-72
2023/04/26 05:18:52;;;;;;;6.18;4.45;;;;;;;13.39;100.00;99499.84;5021339;28;20574;-69
2023/04/26 05:21:18;;;;;;;5.93;4.50;;;;;;;13.46;100.00;99498.16;5023405;28;20024;-73
2023/04/26 05:23:44;;;;;;;5.72;4.32;;;;;;;13.45;100.00;99505.06;5022820;28;20061;-73
2023/04/26 05:26:14;;;;;;;5.68;4.25;;;;;;;13.43;100.00;99512.84;5021262;28;20131;-70
2023/04/26 05:28:40;;;;;;;7.65;4.40;;;;;;;13.46;100.00;99500.75;5021841;28;20450;-69
2023/04/26 05:31:05;;;;;;;6.93;4.43;;;;;;;13.51;100.00;99506.88;5021998;28;20160;-71
2023/04/26 05:33:31;;;;;;;5.97;4.47;;;;;;;13.46;100.00;99487.78;5022715;28;20049;-69
2023/04/26 05:35:57;;;;;;;5.30;4.03;;;;;;;13.60;100.00;99493.97;5021381;28;20025;-69
2023/04/26 05:38:23;;;;;;;5.68;4.22;;;;;;;13.59;100.00;99497.41;5018801;28;20042;-70
2023/04/26 05:40:48;;;;;;;5.38;3.85;;;;;;;13.67;100.00;99500.97;5012895;28;20030;-72
2023/04/26 05:43:14;;;;;;;5.38;3.85;;;;;;;13.73;100.00;99494.94;5012779;28;20049;-70
2023/04/26 05:45:39;;;;;;;5.30;4.00;;;;;;;13.64;100.00;99474.97;5012033;28;20088;-72
2023/04/26 05:48:05;;;;;;;5.82;3.35;;;;;;;13.85;100.00;99508.00;5012840;28;20038;-72
2023/04/26 05:50:31;;;;;;;6.82;3.25;;;;;;;13.76;100.00;99505.34;5012577;28;20057;-69
2023/04/26 05:52:56;;;;;;;4.70;2.95;;;;;;;13.82;100.00;99515.78;5011299;28;20062;-71
2023/04/26 05:55:22;;;;;;;5.80;3.33;;;;;;;13.86;100.00;99508.91;5012545;28;20022;-72
2023/04/26 05:57:47;;;;;;;4.60;3.45;;;;;;;13.94;100.00;99509.81;5012720;28;20034;-73
2023/04/26 06:00:14;;;;;;;8.98;5.97;;;;;;;13.75;100.00;99472.50;5012149;28;20026;-70
2023/04/26 06:02:40;;;;;;;6.38;4.05;;;;;;;14.02;100.00;99518.53;5011877;28;20088;-69
2023/04/26 06:05:06;;;;;;;5.82;4.20;;;;;;;13.70;100.00;99472.44;5027978;28;20034;-74
2023/04/26 06:07:31;;;;;;;7.43;4.07;;;;;;;13.81;100.00;99523.56;5021456;28;20037;-71
2023/04/26 06:09:57;;;;;;;6.03;3.55;;;;;;;13.32;100.00;99470.38;5010556;28;20022;-70
2023/04/26 06:12:22;;;;;;;5.40;4.40;;;;;;;13.47;100.00;99528.41;5011506;28;20504;-70
2023/04/26 06:14:48;;;;;;;9.77;5.30;;;;;;;13.39;100.00;99521.44;5011852;28;20030;-74
2023/04/26 06:17:13;;;;;;;5.70;4.75;;;;;;;13.38;100.00;99519.72;5011645;28;20396;-71
2023/04/26 06:19:39;;;;;;;7.43;4.72;;;;;;;13.15;100.00;99487.47;5012185;28;20404;-73
2023/04/26 06:22:04;;;;;;;7.63;4.35;;;;;;;13.37;100.00;99519.66;5011262;28;20076;-73
2023/04/26 06:24:30;;;;;;;7.05;4.82;;;;;;;13.43;100.00;99511.97;5011939;28;20030;-73
2023/04/26 06:26:55;;;;;;;5.43;4.72;;;;;;;13.24;100.00;99464.22;5011830;28;20037;-70
2023/04/26 06:29:21;;;;;;;6.57;4.55;;;;;;;13.53;100.00;99508.63;5011973;28;20036;-72
2023/04/26 06:31:46;;;;;;;5.47;4.47;;;;;;;13.55;100.00;99500.84;5011509;28;20033;-73
2023/04/26 06:34:11;;;;;;;6.05;4.85;;;;;;;13.76;100.00;99507.94;5011739;28;20054;-73
2023/04/26 06:36:37;;;;;;;6.35;4.18;;;;;;;13.84;100.00;99510.59;5011507;28;20018;-73
2023/04/26 06:39:02;;;;;;;6.22;3.85;;;;;;;13.81;100.00;99488.09;5011397;28;20030;-71
2023/04/26 06:41:28;;;;;;;4.75;3.92;;;;;;;13.97;100.00;99520.22;5011590;28;20092;-72
2023/04/26 06:43:54;;;;;;;5.70;3.97;;;;;;;13.98;100.00;99514.19;5011694;28;20030;-72
2023/04/26 06:46:20;;;;;;;5.28;3.10;;;;;;;13.97;100.00;99515.03;5011466;28;20026;-71
2023/04/26 06:48:45;;;;;;;4.25;3.40;;;;;;;14.01;100.00;99521.13;5011513;28;20052;-72
2023/04/26 06:51:11;;;;;;;4.57;3.72;;;;;;;13.88;100.00;99479.50;5011640;28;20065;-74
2023/04/26 06:53:36;;;;;;;5.63;4.00;;;;;;;14.04;100.00;99501.25;5011589;28;20546;-74
2023/04/26 06:56:02;;;;;;;4.80;3.83;;;;;;;14.10;100.00;99507.34;5011422;28;20041;-70
2023/04/26 06:58:27;;;;;;;6.40;4.20;;;;;;;13.97;100.00;99477.81;5011613;28;20411;-72
2023/04/26 07:00:53;;;;;;;17.00;4.28;;;;;;;14.41;100.00;99521.38;5011319;28;20038;-69
2023/04/26 07:03:18;;;;;;;16.48;5.05;;;;;;;14.47;100.00;99523.16;5011214;28;20112;-72
2023/04/26 07:05:44;;;;;;;8.85;4.07;;;;;;;14.51;100.00;99524.91;5011400;28;20022;-69
2023/04/26 07:08:10;;;;;;;5.10;3.83;;;;;;;14.37;100.00;99496.28;5010907;28;20084;-71
2023/04/26 07:10:36;;;;;;;18.63;5.78;;;;;;;14.53;100.00;99525.81;5017742;28;20025;-71
2023/04/26 07:13:01;;;;;;;18.23;5.45;;;;;;;14.42;100.00;99522.25;5030869;28;20437;-71
2023/04/26 07:15:27;;;;;;;16.60;6.47;;;;;;;14.57;100.00;99523.22;5030806;28;20028;-69
2023/04/26 07:17:52;;;;;;;9.30;5.13;;;;;;;14.71;100.00;99518.09;5029572;28;20029;-70
2023/04/26 07:20:21;;;;;;;8.38;3.50;;;;;;;14.78;100.00;99531.13;5061553;28;20099;-74
2023/04/26 07:22:47;;;;;;;18.40;5.07;;;;;;;14.84;100.00;99526.84;5030821;28;20514;-71
2023/04/26 07:25:12;;;;;;;8.95;3.95;;;;;;;14.87;100.00;99518.19;5030946;28;20105;-75
2023/04/26 07:27:37;;;;;;;6.28;3.75;;;;;;;14.88;100.00;99507.78;5030761;28;20029;-71
2023/04/26 07:30:04;;;;;;;7.63;4.18;;;;;;;14.90;100.00;99525.13;5030501;28;20029;-73
2023/04/26 07:32:30;;;;;;;11.50;4.10;;;;;;;14.93;100.00;99532.91;5030075;28;20119;-69
2023/04/26 07:34:56;;;;;;;7.57;4.22;;;;;;;15.02;100.00;99531.22;5030647;28;20034;-73
2023/04/26 07:37:21;;;;;;;7.38;4.30;;;;;;;15.23;100.00;99516.56;5028331;28;20060;-69
2023/04/26 07:39:47;;;;;;;9.02;4.30;;;;;;;15.35;100.00;99521.81;5030066;28;20443;-70
2023/04/26 07:42:12;;;;;;;7.47;3.58;;;;;;;15.49;100.00;99516.63;5030116;28;20494;-72
2023/04/26 07:44:38;;;;;;;6.03;3.83;;;;;;;15.66;100.00;99526.19;5047070;28;20526;-69
2023/04/26 07:47:03;;;;;;;4.70;3.25;;;;;;;15.44;100.00;99475.84;5047653;28;20040;-70
2023/04/26 07:49:29;;;;;;;6.70;3.88;;;;;;;15.76;100.00;99524.47;5047567;28;20538;-69
2023/04/26 07:51:55;;;;;;;4.65;3.40;;;;;;;15.75;100.00;99528.81;5047839;28;20142;-73
2023/04/26 07:54:20;;;;;;;8.00;4.35;;;;;;;15.81;100.00;99533.13;5047212;28;20029;-70
2023/04/26 07:56:46;;;;;;;11.27;4.40;;;;;;;15.61;99.88;99481.09;5046247;28;20107;-70
2023/04/26 07:59:11;;;;;;;6.10;3.60;;;;;;;15.78;96.53;99531.41;5047268;28;20037;-68
2023/04/26 08:01:37;;;;;;;10.23;3.67;;;;;;;15.78;99.18;99533.16;5047492;28;20545;-72
2023/04/26 08:04:04;;;;;;;6.38;3.03;;;;;;;15.82;95.57;99529.69;5047709;28;20048;-71
2023/04/26 08:06:30;;;;;;;4.47;2.70;;;;;;;15.82;96.90;99517.53;5047547;28;20025;-71
2023/04/26 08:08:55;;;;;;;6.85;3.70;;;;;;;16.14;100.00;99516.66;5047597;28;20049;-71
2023/04/26 08:11:21;;;;;;;6.78;3.28;;;;;;;16.20;98.29;99504.50;5047534;28;20411;-73
2023/04/26 08:13:47;;;;;;;5.38;3.72;;;;;;;16.43;100.00;99527.91;5046870;28;20458;-72
2023/04/26 08:16:12;;;;;;;4.20;3.13;;;;;;;16.57;99.71;99510.50;5047646;28;20037;-71
2023/04/26 08:18:38;;;;;;;9.32;3.33;;;;;;;16.54;95.21;99518.31;5047545;28;20047;-73
2023/04/26 08:21:03;;;;;;;4.55;2.78;;;;;;;16.27;92.82;99485.41;5045895;28;20033;-76
2023/04/26 08:23:34;;;;;;;5.60;3.22;;;;;;;16.40;93.63;99507.06;5029340;28;20033;-73
2023/04/26 08:26:00;;;;;;;10.95;4.15;;;;;;;16.57;92.16;99522.66;5030156;28;20067;-73
2023/04/26 08:28:25;;;;;;;10.23;3.75;;;;;;;16.62;89.33;99513.09;5026533;28;20029;-70
2023/04/26 08:30:51;;;;;;;4.72;2.88;;;;;;;16.44;91.25;99496.63;5029577;28;20384;-69
2023/04/26 08:33:17;;;;;;;3.60;2.70;;;;;;;16.06;89.06;99453.31;5029516;28;20042;-70
2023/04/26 08:35:42;;;;;;;7.82;3.60;;;;;;;16.33;89.43;99514.03;5029210;28;20040;-73
2023/04/26 08:38:08;;;;;;;3.97;2.85;;;;;;;16.33;89.77;99516.63;5029868;28;20029;-68
2023/04/26 08:40:35;;;;;;;4.75;2.85;;;;;;;16.29;88.21;99514.91;5029959;28;20031;-71
2023/04/26 08:43:01;;;;;;;4.10;2.58;;;;;;;15.99;91.79;99470.69;5029128;28;20034;-70
2023/04/26 08:45:27;;;;;;;4.53;2.88;;;;;;;15.47;92.58;99468.94;5030543;28;20091;-71
2023/04/26 08:47:59;;;;;;;3.50;2.85;;;;;;;15.79;95.17;99514.06;5032662;28;20411;-67
2023/04/26 08:50:24;;;;;;;5.95;2.55;;;;;;;15.96;97.77;99499.34;5033149;28;20484;-72
2023/04/26 08:52:51;;;;;;;4.20;3.10;;;;;;;15.97;94.70;99467.22;5032829;28;20033;-71
2023/04/26 08:55:18;;;;;;;7.70;2.90;;;;;;;16.15;88.88;99476.75;5032824;28;20506;-70
2023/04/26 08:57:46;;;;;;;5.50;3.15;;;;;;;16.49;93.07;99514.88;5033200;28;20017;-68
2023/04/26 09:00:14;;;;;;;9.38;3.13;;;;;;;16.75;88.15;99499.16;5033206;28;20033;-72
2023/04/26 09:02:41;;;;;;;8.05;3.25;;;;;;;17.08;92.78;99512.06;5029849;28;20072;-71
2023/04/26 09:05:08;;;;;;;5.10;2.63;;;;;;;17.25;86.05;99507.63;5032717;28;20081;-71
2023/04/26 09:07:44;;;;;;;4.00;2.72;;;;;;;17.22;86.49;99475.47;5010394;28;20044;-70
2023/04/26 09:10:11;;;;;;;6.93;3.00;;;;;;;17.73;95.04;99507.31;5010176;28;20084;-69
2023/04/26 09:12:37;;;;;;;5.28;2.50;;;;;;;17.86;91.94;99495.00;5010377;28;20045;-71
2023/04/26 09:15:06;;;;;;;4.13;2.53;;;;;;;17.94;86.40;99494.97;4996993;28;20390;-70
2023/04/26 09:17:35;;;;;;;4.53;2.60;;;;;;;17.92;81.98;99502.78;5009549;28;20033;-70
2023/04/26 09:20:15;;;;;;;3.75;2.33;;;;;;;17.75;79.05;99494.25;5009752;28;20034;-73
2023/04/26 09:22:41;;;;;;;6.57;2.85;;;;;;;17.78;79.82;99489.88;4994884;28;20804;-69
2023/04/26 09:25:07;;;;;;;3.75;2.50;;;;;;;17.99;83.89;99484.50;5010131;28;20056;-71
2023/04/26 09:27:34;;;;;;;7.38;3.28;;;;;;;18.13;86.98;99490.47;5009579;28;20443;-70
2023/04/26 09:30:16;;;;;;;6.75;3.22;;;;;;;18.25;83.40;99481.63;5009742;28;20029;-68
2023/04/26 09:33:02;;;;;;;3.90;2.47;;;;;;;18.12;78.30;99467.84;5009251;28;20049;-68
2023/04/26 09:35:39;;;;;;;4.75;2.88;;;;;;;18.21;79.72;99445.97;5005981;28;20037;-71
2023/04/26 09:38:09;;;;;;;3.67;2.85;;;;;;;18.58;83.16;99483.00;5013203;28;20064;-71
2023/04/26 09:40:43;;;;;;;4.88;2.90;;;;;;;18.48;81.55;99468.31;5032329;28;20018;-70
2023/04/26 09:43:17;;;;;;;5.68;3.22;;;;;;;18.65;82.66;99475.09;5029645;28;20029;-72
2023/04/26 09:45:48;;;;;;;3.88;2.45;;;;;;;18.51;80.80;99472.63;5029839;28;20051;-70
2023/04/26 09:48:20;;;;;;;4.85;2.80;;;;;;;18.18;80.25;99462.53;5026256;28;20037;-74
2023/04/26 09:50:47;;;;;;;4.45;3.15;;;;;;;17.65;79.07;99467.34;5029449;28;20037;-70
2023/04/26 09:53:28;;;;;;;6.45;2.83;;;;;;;17.91;80.63;99459.28;5025396;28;20073;-71
2023/04/26 09:55:55;;;;;;;5.00;2.65;;;;;;;18.17;79.67;99463.41;5019925;28;20492;-73
2023/04/26 09:58:22;;;;;;;6.65;3.80;;;;;;;18.28;76.65;99463.31;5031274;28;20505;-78
2023/04/26 10:00:50;;;;;;;10.77;3.97;;;;;;;18.28;80.91;99447.66;5032541;28;20411;-72
2023/04/26 10:03:18;;;;;;;4.88;3.00;;;;;;;18.50;82.21;99461.31;5032538;28;20403;-70
2023/04/26 10:05:43;;;;;;;4.85;3.00;;;;;;;18.53;77.29;99449.94;5032464;28;20040;-75
2023/04/26 10:08:09;;;;;;;4.28;2.95;;;;;;;18.26;76.96;99444.16;5032655;28;20033;-72
2023/04/26 10:10:36;;;;;;;10.23;3.00;;;;;;;18.05;76.31;99450.47;5032472;28;20037;-69
2023/04/26 10:13:02;;;;;;;3.95;3.10;;;;;;;17.49;79.45;99403.97;5032257;28;20120;-72
2023/04/26 10:15:28;;;;;;;5.28;2.95;;;;;;;17.75;80.40;99416.78;5032072;28;20513;-70
2023/04/26 10:17:54;;;;;;;6.50;3.28;;;;;;;18.35;81.79;99431.00;5032196;28;20112;-73
2023/04/26 10:20:23;;;;;;;4.63;3.13;;;;;;;18.65;77.11;99430.63;5032286;28;20041;-73
2023/04/26 10:22:59;;;;;;;6.90;4.18;;;;;;;18.78;75.22;99423.50;5031818;28;20021;-73
2023/04/26 10:25:40;;;;;;;6.82;3.65;;;;;;;18.88;76.31;99402.44;5030739;28;20033;-73
2023/04/26 10:28:06;;;;;;;4.10;3.15;;;;;;;18.59;74.98;99421.13;5032076;28;20027;-73
2023/04/26 10:30:32;;;;;;;4.18;3.10;;;;;;;18.57;76.34;99402.84;5032105;28;20033;-71
2023/04/26 10:32:57;;;;;;;4.45;2.60;;;;;;;18.69;74.66;99414.03;5031669;28;20095;-72
2023/04/26 10:35:25;;;;;;;3.50;2.65;;;;;;;18.37;74.62;99405.72;5029236;28;20041;-72
2023/04/26 10:37:59;;;;;;;4.55;2.97;;;;;;;18.32;74.91;99419.69;5031933;28;20112;-71
2023/04/26 10:40:30;;;;;;;5.22;2.95;;;;;;;18.37;75.91;99425.78;5031680;28;20550;-72
2023/04/26 10:43:08;;;;;;;4.07;2.95;;;;;;;18.57;74.90;99415.91;5031645;28;20072;-72
2023/04/26 10:45:36;;;;;;;4.32;3.10;;;;;;;18.62;74.61;99417.59;5031936;28;20091;-70
2023/04/26 10:48:22;;;;;;;4.03;2.58;;;;;;;18.75;74.14;99420.06;5031408;28;20064;-72
2023/04/26 10:51:11;;;;;;;3.65;3.05;;;;;;;18.94;76.74;99421.56;5031717;28;20068;-73
2023/04/26 10:53:50;;;;;;;4.32;3.22;;;;;;;19.05;75.98;99419.66;5031539;28;20036;-73
2023/04/26 10:56:22;;;;;;;;;;;;;;;19.18;73.64;99415.13;5031989;28;20071;-73
2023/04/26 10:58:47;;;;;;;4.93;2.60;;;;;;;18.78;73.13;99393.00;5031449;28;19917;-73
2023/04/26 11:01:19;;;;;;;3.30;2.60;;;;;;;18.57;74.84;99383.69;5031524;28;20034;-72
2023/04/26 11:03:57;;;;;;;4.18;2.70;;;;;;;19.08;72.63;99409.16;5030901;28;20120;-74
2023/04/26 11:06:23;;;;;;;3.08;2.63;;;;;;;18.86;73.18;99377.19;5031499;28;20029;-70
2023/04/26 11:08:49;;;;;;;3.35;2.72;;;;;;;19.38;73.16;99412.19;5030663;28;20053;-70
2023/04/26 11:11:18;;;;;;;4.90;2.60;;;;;;;19.24;73.39;99337.38;5030974;28;20060;-70
2023/04/26 11:13:45;;;;;;;3.43;2.60;;;;;;;19.96;77.16;99391.13;5031169;28;20030;-72
2023/04/26 11:16:11;;;;;;;4.53;2.70;;;;;;;20.12;73.09;99400.41;5030813;28;20264;-71
2023/04/26 11:18:44;;;;;;;4.65;2.88;;;;;;;20.20;72.65;99398.53;5030997;28;20387;-73
2023/04/26 11:21:11;;;;;;;4.28;3.22;;;;;;;20.28;75.11;99400.13;5030335;28;20038;-74
2023/04/26 11:23:37;;;;;;;8.25;3.60;;;;;;;20.26;73.49;99380.94;5030060;28;20571;-72
2023/04/26 11:26:09;;;;;;;4.22;2.40;;;;;;;20.00;71.08;99379.69;5017240;28;20033;-71